Time;durP1;ratioP1;P1;durP2;ratioP2;P2;SDS_P1;SDS_P2;PMS_P1;PMS_P2;Temp;Humidity;BMP_temperature;BMP_pressure;BME280_temperature;BME280_humidity;BME280_pressure;Samples;Min_cycle;Max_cycle;Signal;HPM_P1;HPM_P2
2020/12/06 00:00:57;;;;;;;40.77;19.80;;;4.70;99.10;;;;;;5030161;28;20672;-73
2020/12/06 00:03:22;;;;;;;44.87;20.43;;;4.80;99.20;;;;;;5031873;28;20189;-73
2020/12/06 00:05:48;;;;;;;42.37;19.43;;;4.80;99.10;;;;;;5030994;28;20185;-73
2020/12/06 00:08:14;;;;;;;34.87;17.30;;;4.90;99.10;;;;;;5017887;28;20291;-72
2020/12/06 00:10:39;;;;;;;36.83;18.67;;;4.90;98.80;;;;;;5031328;28;20201;-72
2020/12/06 00:13:05;;;;;;;42.40;20.37;;;5.00;98.70;;;;;;5031004;28;20208;-74
2020/12/06 00:15:31;;;;;;;40.43;20.20;;;5.00;98.30;;;;;;5029085;28;20679;-74
2020/12/06 00:17:56;;;;;;;34.40;18.20;;;5.00;98.20;;;;;;5027869;28;20319;-73
2020/12/06 00:20:23;;;;;;;36.83;17.63;;;5.10;98.20;;;;;;5030634;28;20212;-74
2020/12/06 00:22:50;;;;;;;37.35;19.73;;;5.10;98.20;;;;;;5027118;28;20566;-72
2020/12/06 00:25:15;;;;;;;37.80;18.87;;;5.10;98.20;;;;;;5016359;28;20898;-73
2020/12/06 00:27:41;;;;;;;40.80;18.60;;;5.10;98.20;;;;;;5030477;28;20467;-72
2020/12/06 00:30:09;;;;;;;34.40;16.70;;;5.20;98.00;;;;;;5030329;28;20681;-74
2020/12/06 00:32:36;;;;;;;34.60;17.88;;;5.20;97.80;;;;;;5025134;28;20208;-75
2020/12/06 00:35:03;;;;;;;37.67;18.70;;;5.20;97.70;;;;;;5023953;28;20227;-71
2020/12/06 00:37:28;;;;;;;38.83;19.93;;;5.10;97.80;;;;;;5020880;28;20184;-75
2020/12/06 00:39:54;;;;;;;36.97;18.63;;;5.10;97.90;;;;;;5019160;28;20452;-71
2020/12/06 00:42:20;;;;;;;45.40;18.57;;;5.10;98.00;;;;;;5018811;28;20194;-70
2020/12/06 00:44:46;;;;;;;40.23;21.07;;;5.10;97.90;;;;;;5015017;28;20204;-69
2020/12/06 00:47:12;;;;;;;35.30;18.80;;;5.20;97.80;;;;;;5020408;28;20432;-74
2020/12/06 00:49:38;;;;;;;38.80;18.83;;;5.20;97.80;;;;;;5028551;28;20225;-74
2020/12/06 00:52:04;;;;;;;32.83;18.20;;;5.20;97.70;;;;;;5026957;28;20485;-73
2020/12/06 00:54:30;;;;;;;35.30;18.50;;;5.10;97.40;;;;;;5013336;28;20272;-72
2020/12/06 00:56:56;;;;;;;39.00;18.33;;;5.10;97.40;;;;;;5023544;28;20192;-72
2020/12/06 00:59:22;;;;;;;43.03;21.40;;;5.00;97.50;;;;;;5019307;28;20209;-74
2020/12/06 01:01:48;;;;;;;39.87;19.03;;;4.90;97.70;;;;;;5017954;28;20437;-72
2020/12/06 01:04:14;;;;;;;39.47;19.70;;;4.80;98.00;;;;;;5028981;28;20455;-73
2020/12/06 01:06:40;;;;;;;40.73;17.83;;;4.80;98.30;;;;;;5029146;28;20569;-74
2020/12/06 01:09:05;;;;;;;33.33;17.43;;;4.80;98.40;;;;;;5018413;28;20296;-75
2020/12/06 01:11:31;;;;;;;37.67;18.33;;;4.70;98.50;;;;;;5032153;28;20211;-74
2020/12/06 01:13:57;;;;;;;43.30;19.70;;;4.70;98.50;;;;;;5032757;28;20185;-73
2020/12/06 01:16:23;;;;;;;38.93;19.47;;;4.60;98.60;;;;;;5028884;28;20211;-73
2020/12/06 01:18:48;;;;;;;42.83;20.17;;;4.50;98.80;;;;;;5030132;28;20945;-74
2020/12/06 01:21:14;;;;;;;50.03;21.13;;;4.50;99.00;;;;;;5030182;28;20197;-73
2020/12/06 01:23:40;;;;;;;39.67;18.47;;;4.40;98.90;;;;;;5030386;28;20185;-72
2020/12/06 01:26:05;;;;;;;40.37;20.30;;;4.40;99.10;;;;;;5029350;28;20267;-73
2020/12/06 01:28:31;;;;;;;39.70;18.83;;;4.40;99.20;;;;;;5030162;28;20248;-73
2020/12/06 01:30:57;;;;;;;41.20;19.73;;;4.40;99.30;;;;;;5028658;28;20232;-75
2020/12/06 01:33:22;;;;;;;40.37;19.93;;;4.40;99.30;;;;;;5030284;28;20177;-74
2020/12/06 01:35:48;;;;;;;44.73;19.40;;;4.40;99.30;;;;;;5028324;28;20189;-75
2020/12/06 01:38:14;;;;;;;41.90;19.83;;;4.40;99.30;;;;;;5030188;28;20193;-74
2020/12/06 01:40:40;;;;;;;41.40;19.20;;;4.40;99.30;;;;;;5030927;28;20847;-73
2020/12/06 01:43:09;;;;;;;45.10;22.17;;;4.40;99.10;;;;;;5030479;28;20313;-74
2020/12/06 01:45:36;;;;;;;37.75;18.92;;;4.30;98.90;;;;;;5028634;28;20741;-74
2020/12/06 01:48:07;;;;;;;36.92;19.42;;;4.30;99.10;;;;;;5032286;28;20209;-72
2020/12/06 01:50:36;;;;;;;38.97;18.58;;;4.30;99.30;;;;;;5036513;28;20590;-72
2020/12/06 01:53:03;;;;;;;41.92;18.83;;;4.40;99.50;;;;;;5036130;28;20185;-73
2020/12/06 01:55:30;;;;;;;43.95;20.33;;;4.40;99.60;;;;;;5034523;28;20186;-74
2020/12/06 01:58:06;;;;;;;42.17;18.45;;;4.50;99.70;;;;;;5030651;28;20266;-73
2020/12/06 02:00:33;;;;;;;37.63;19.13;;;4.60;99.70;;;;;;5029193;28;20745;-72
2020/12/06 02:03:02;;;;;;;39.93;19.27;;;4.60;99.50;;;;;;5018230;28;20676;-73
2020/12/06 02:05:28;;;;;;;39.75;19.17;;;4.60;99.10;;;;;;5030780;28;20447;-73
2020/12/06 02:07:57;;;;;;;38.85;20.02;;;4.50;98.90;;;;;;5027963;28;20213;-71
2020/12/06 02:10:28;;;;;;;44.78;18.98;;;4.50;98.90;;;;;;5024310;28;20288;-76
2020/12/06 02:12:55;;;;;;;36.47;18.50;;;4.40;98.80;;;;;;5025771;28;20557;-72
2020/12/06 02:15:21;;;;;;;43.97;20.23;;;4.40;98.90;;;;;;5030291;28;20187;-72
2020/12/06 02:17:47;;;;;;;44.03;21.60;;;4.40;99.10;;;;;;5034402;28;20192;-72
2020/12/06 02:20:13;;;;;;;47.03;20.87;;;4.50;99.30;;;;;;5022604;28;20213;-72
2020/12/06 02:22:39;;;;;;;43.60;20.00;;;4.30;99.10;;;;;;5020465;28;20499;-72
2020/12/06 02:25:05;;;;;;;41.63;20.17;;;4.20;99.20;;;;;;5020739;28;20696;-73
2020/12/06 02:27:30;;;;;;;44.07;20.13;;;4.30;99.40;;;;;;5033836;28;20193;-73
2020/12/06 02:29:57;;;;;;;44.90;20.97;;;4.30;99.60;;;;;;5033071;28;20204;-72
2020/12/06 02:32:22;;;;;;;45.17;19.67;;;4.30;99.40;;;;;;5021611;28;20264;-73
2020/12/06 02:34:48;;;;;;;46.57;21.47;;;4.20;99.40;;;;;;5032972;28;20691;-73
2020/12/06 02:37:14;;;;;;;39.70;19.57;;;4.10;99.50;;;;;;5033139;28;20416;-73
2020/12/06 02:39:40;;;;;;;50.93;22.00;;;4.10;99.60;;;;;;5033380;28;20221;-76
2020/12/06 02:42:06;;;;;;;43.07;21.70;;;4.10;99.60;;;;;;5020961;28;20950;-76
2020/12/06 02:44:32;;;;;;;48.80;21.50;;;4.00;99.60;;;;;;5031484;28;20452;-72
2020/12/06 02:46:59;;;;;;;57.17;22.70;;;4.10;99.80;;;;;;5014605;28;20760;-72
2020/12/06 02:49:26;;;;;;;53.17;21.95;;;4.10;99.90;;;;;;5024437;28;20220;-71
2020/12/06 02:51:51;;;;;;;51.67;22.17;;;4.10;99.90;;;;;;5027976;28;20271;-73
2020/12/06 02:54:17;;;;;;;47.70;22.03;;;4.20;99.80;;;;;;5034077;28;20268;-72
2020/12/06 02:56:43;;;;;;;53.67;23.93;;;4.00;99.50;;;;;;5033180;28;20212;-74
2020/12/06 02:59:08;;;;;;;45.03;21.63;;;3.90;99.30;;;;;;5024024;28;20260;-73
2020/12/06 03:01:34;;;;;;;50.60;21.43;;;3.90;99.50;;;;;;5037691;28;20189;-71
2020/12/06 03:04:00;;;;;;;55.13;23.50;;;3.80;99.60;;;;;;5037508;28;20252;-73
2020/12/06 03:06:26;;;;;;;45.70;21.87;;;3.90;99.70;;;;;;5045356;28;20188;-73
2020/12/06 03:08:52;;;;;;;52.65;22.40;;;3.90;99.70;;;;;;5032704;28;20212;-71
2020/12/06 03:11:19;;;;;;;48.73;21.13;;;3.90;99.70;;;;;;5038894;28;20234;-72
2020/12/06 03:13:44;;;;;;;49.25;20.98;;;3.80;99.30;;;;;;5040530;28;20420;-74
2020/12/06 03:16:10;;;;;;;52.50;23.43;;;3.80;99.30;;;;;;5039588;28;20185;-72
2020/12/06 03:18:36;;;;;;;54.57;22.73;;;3.80;99.40;;;;;;5041403;28;20618;-73
2020/12/06 03:21:02;;;;;;;45.30;20.80;;;3.80;99.30;;;;;;5036820;28;20197;-73
2020/12/06 03:23:28;;;;;;;48.92;19.48;;;3.70;99.00;;;;;;5033092;28;20189;-71
2020/12/06 03:25:54;;;;;;;53.23;22.77;;;3.70;99.20;;;;;;5032444;28;20262;-74
2020/12/06 03:28:19;;;;;;;54.13;22.53;;;3.70;99.30;;;;;;5032141;28;20550;-73
2020/12/06 03:30:45;;;;;;;46.40;20.40;;;3.70;99.30;;;;;;5031870;28;20205;-74
2020/12/06 03:33:11;;;;;;;53.60;22.67;;;3.70;99.30;;;;;;5033009;28;20188;-73
2020/12/06 03:35:37;;;;;;;51.90;22.20;;;3.70;99.50;;;;;;5032807;28;20181;-74
2020/12/06 03:38:03;;;;;;;48.73;21.03;;;3.70;99.60;;;;;;5031449;28;20432;-72
2020/12/06 03:40:28;;;;;;;54.40;21.80;;;3.70;99.50;;;;;;5031111;28;20713;-73
2020/12/06 03:42:55;;;;;;;59.93;22.73;;;3.60;99.50;;;;;;5032250;28;20439;-73
2020/12/06 03:45:21;;;;;;;56.25;22.63;;;3.50;99.70;;;;;;5032207;28;20186;-72
2020/12/06 03:47:47;;;;;;;63.07;24.40;;;3.50;99.80;;;;;;5031369;28;20289;-73
2020/12/06 03:50:13;;;;;;;67.20;24.77;;;3.50;99.90;;;;;;5033149;28;20287;-75
2020/12/06 03:52:39;;;;;;;58.90;22.00;;;3.40;99.90;;;;;;5031235;28;20268;-73
2020/12/06 03:55:05;;;;;;;58.37;23.70;;;3.40;99.90;;;;;;5032003;28;20470;-73
2020/12/06 03:57:31;;;;;;;67.65;24.50;;;3.50;99.90;;;;;;5032397;28;20216;-75
2020/12/06 03:59:56;;;;;;;56.97;21.23;;;3.50;99.90;;;;;;5030848;28;20221;-75
2020/12/06 04:02:23;;;;;;;54.17;22.67;;;3.50;99.90;;;;;;5032559;28;20449;-74
2020/12/06 04:04:48;;;;;;;68.53;21.88;;;3.50;99.90;;;;;;5031565;28;20188;-73
2020/12/06 04:07:14;;;;;;;67.50;25.70;;;3.50;99.90;;;;;;5032114;28;20173;-74
2020/12/06 04:09:40;;;;;;;74.87;23.33;;;3.40;99.90;;;;;;5030899;28;20213;-72
2020/12/06 04:12:05;;;;;;;75.43;24.40;;;3.40;99.90;;;;;;5032112;28;20188;-74
2020/12/06 04:14:31;;;;;;;68.07;24.60;;;3.40;99.90;;;;;;5037016;28;20191;-74
2020/12/06 04:16:57;;;;;;;74.40;25.60;;;3.50;99.90;;;;;;5030764;28;20204;-73
2020/12/06 04:19:22;;;;;;;69.43;25.27;;;3.50;99.90;;;;;;5031871;28;20208;-74
2020/12/06 04:21:48;;;;;;;62.57;22.90;;;3.50;99.90;;;;;;5032090;28;20184;-72
2020/12/06 04:24:15;;;;;;;75.60;25.60;;;3.50;99.90;;;;;;5029998;28;20447;-73
2020/12/06 04:26:41;;;;;;;65.18;24.25;;;3.50;99.90;;;;;;5024192;28;20178;-74
2020/12/06 04:29:07;;;;;;;69.07;24.90;;;3.50;99.90;;;;;;5012565;28;20216;-72
2020/12/06 04:31:32;;;;;;;70.47;26.07;;;3.60;99.90;;;;;;5030394;28;20543;-74
2020/12/06 04:33:58;;;;;;;75.43;25.20;;;3.70;99.90;;;;;;5032082;28;20674;-74
2020/12/06 04:36:24;;;;;;;73.00;24.53;;;3.70;99.90;;;;;;5031641;28;20219;-75
2020/12/06 04:38:49;;;;;;;71.47;26.30;;;3.60;99.90;;;;;;5032906;28;20201;-71
2020/12/06 04:41:15;;;;;;;73.67;28.00;;;3.60;99.90;;;;;;5033348;28;20181;-73
2020/12/06 04:43:43;;;;;;;71.80;26.53;;;3.60;99.90;;;;;;5031621;28;20682;-74
2020/12/06 04:46:10;;;;;;;71.45;23.83;;;3.60;99.90;;;;;;5031641;28;20185;-75
2020/12/06 04:49:04;;;;;;;70.25;22.98;;;3.60;99.90;;;;;;5029615;28;20217;-75
2020/12/06 04:51:40;;;;;;;72.40;24.98;;;3.60;99.90;;;;;;5031080;28;20192;-72
2020/12/06 04:54:07;;;;;;;59.58;21.60;;;3.50;99.90;;;;;;5030835;28;20644;-74
2020/12/06 04:56:33;;;;;;;75.13;24.80;;;3.50;99.90;;;;;;5030224;28;20190;-73
2020/12/06 04:59:01;;;;;;;69.57;22.87;;;3.50;99.90;;;;;;5030891;28;20211;-72
2020/12/06 05:01:35;;;;;;;68.78;24.80;;;3.50;99.90;;;;;;5030899;28;20610;-72
2020/12/06 05:04:09;;;;;;;59.05;23.52;;;3.50;99.90;;;;;;5029520;28;20557;-73
2020/12/06 05:06:39;;;;;;;63.63;22.80;;;3.50;99.90;;;;;;5029821;28;20267;-75
2020/12/06 05:09:09;;;;;;;60.38;22.10;;;3.50;99.90;;;;;;5032365;28;20217;-73
2020/12/06 05:11:36;;;;;;;69.82;23.58;;;3.50;99.90;;;;;;5032519;28;20706;-73
2020/12/06 05:14:05;;;;;;;60.83;21.77;;;3.50;99.60;;;;;;5031748;28;20182;-74
2020/12/06 05:16:32;;;;;;;70.25;25.23;;;3.50;99.50;;;;;;5031457;28;20181;-72
2020/12/06 05:18:58;;;;;;;75.55;25.10;;;3.50;99.40;;;;;;5031155;28;20221;-73
2020/12/06 05:21:35;;;;;;;66.90;23.67;;;3.40;99.30;;;;;;5031748;28;20273;-73
2020/12/06 05:24:02;;;;;;;80.57;25.75;;;3.40;99.30;;;;;;5038875;28;20177;-75
2020/12/06 05:26:29;;;;;;;87.30;27.92;;;3.30;99.40;;;;;;5047430;28;20200;-73
2020/12/06 05:28:54;;;;;;;74.70;25.58;;;3.20;99.50;;;;;;5046666;28;20305;-74
2020/12/06 05:31:22;;;;;;;81.27;25.80;;;3.20;99.80;;;;;;5046788;28;20181;-73
2020/12/06 05:33:48;;;;;;;76.43;26.50;;;3.20;99.90;;;;;;5045797;28;20485;-73
2020/12/06 05:36:15;;;;;;;85.27;26.63;;;3.30;99.90;;;;;;5040915;28;20182;-71
2020/12/06 05:38:40;;;;;;;69.93;25.80;;;3.30;99.90;;;;;;5038589;28;20431;-73
2020/12/06 05:41:09;;;;;;;65.13;23.67;;;3.20;99.90;;;;;;5045199;28;20185;-72
2020/12/06 05:43:35;;;;;;;65.13;22.65;;;3.30;99.90;;;;;;5022299;28;20440;-72
2020/12/06 05:46:08;;;;;;;68.05;26.48;;;3.30;99.40;;;;;;5032876;28;20223;-74
2020/12/06 05:48:35;;;;;;;68.97;22.60;;;3.30;99.40;;;;;;5030308;28;20254;-73
2020/12/06 05:51:02;;;;;;;60.83;21.23;;;3.30;99.30;;;;;;5027800;28;20177;-74
2020/12/06 05:53:29;;;;;;;76.70;26.42;;;3.40;99.30;;;;;;5035729;28;20219;-72
2020/12/06 05:56:13;;;;;;;65.93;24.45;;;3.40;99.10;;;;;;5028071;28;20333;-74
2020/12/06 05:58:45;;;;;;;69.90;24.13;;;3.40;99.10;;;;;;5017335;28;20186;-73
2020/12/06 06:01:13;;;;;;;67.93;22.17;;;3.40;98.90;;;;;;5029117;28;20261;-74
2020/12/06 06:03:46;;;;;;;68.85;23.02;;;3.30;98.40;;;;;;5025674;28;20207;-74
2020/12/06 06:06:26;;;;;;;66.38;23.45;;;3.30;98.40;;;;;;5038131;28;20280;-73
2020/12/06 06:08:54;;;;;;;74.78;25.85;;;3.30;98.60;;;;;;5039489;28;20224;-76
2020/12/06 06:11:28;;;;;;;73.18;27.05;;;3.30;98.70;;;;;;5040986;28;20193;-77
2020/12/06 06:13:56;;;;;;;59.13;21.05;;;3.30;98.70;;;;;;5042263;28;20656;-74
2020/12/06 06:16:24;;;;;;;63.30;21.67;;;3.40;98.80;;;;;;5038304;28;20743;-73
2020/12/06 06:18:51;;;;;;;66.70;23.67;;;3.40;98.70;;;;;;5037052;28;20231;-73
2020/12/06 06:21:19;;;;;;;66.88;24.33;;;3.40;98.20;;;;;;5038482;28;20232;-74
2020/12/06 06:23:46;;;;;;;64.93;23.23;;;3.30;98.20;;;;;;5038476;28;20257;-75
2020/12/06 06:26:15;;;;;;;64.53;23.77;;;3.30;98.40;;;;;;5038993;28;20185;-75
2020/12/06 06:28:43;;;;;;;64.80;23.67;;;3.40;98.50;;;;;;5034831;28;20205;-73
2020/12/06 06:31:13;;;;;;;69.53;24.13;;;3.40;98.50;;;;;;5037698;28;20185;-74
2020/12/06 06:33:39;;;;;;;72.47;26.55;;;3.40;98.50;;;;;;5034033;28;20178;-74
2020/12/06 06:36:08;;;;;;;61.30;24.27;;;3.50;98.60;;;;;;5034383;28;20603;-73
2020/12/06 06:38:44;;;;;;;68.72;23.42;;;3.60;98.40;;;;;;5029803;28;20221;-74
2020/12/06 06:41:11;;;;;;;72.88;25.00;;;3.60;98.40;;;;;;5031260;28;20185;-73
2020/12/06 06:43:39;;;;;;;51.10;20.73;;;3.70;98.40;;;;;;5029333;28;20200;-74
2020/12/06 06:46:21;;;;;;;57.95;20.55;;;3.70;98.40;;;;;;5034071;28;20193;-74
2020/12/06 06:48:49;;;;;;;56.20;21.15;;;3.80;98.20;;;;;;5029388;28;20210;-74
2020/12/06 06:51:20;;;;;;;65.47;23.60;;;3.80;98.20;;;;;;5033724;28;20185;-72
2020/12/06 06:53:46;;;;;;;80.97;28.98;;;3.80;98.10;;;;;;5065380;28;20185;-73
2020/12/06 06:56:17;;;;;;;67.32;23.65;;;3.80;98.00;;;;;;5027514;28;20181;-73
2020/12/06 06:58:49;;;;;;;68.10;23.92;;;3.70;97.90;;;;;;5018075;28;20608;-72
2020/12/06 07:01:18;;;;;;;62.88;22.42;;;3.70;98.00;;;;;;5027026;28;20274;-73
2020/12/06 07:03:48;;;;;;;66.10;22.88;;;3.60;98.30;;;;;;5027834;28;20307;-75
2020/12/06 07:06:48;;;;;;;74.32;23.70;;;3.50;98.60;;;;;;5026097;28;20228;-74
2020/12/06 07:09:30;;;;;;;66.15;22.75;;;3.50;98.90;;;;;;5023324;28;20255;-73
2020/12/06 07:12:01;;;;;;;76.05;22.92;;;3.50;99.20;;;;;;5027936;28;20181;-75
2020/12/06 07:14:28;;;;;;;64.78;22.63;;;3.50;99.40;;;;;;5029425;28;20625;-73
2020/12/06 07:16:55;;;;;;;67.43;24.35;;;3.50;99.60;;;;;;5019731;28;20696;-75
2020/12/06 07:19:22;;;;;;;76.03;26.45;;;3.50;99.70;;;;;;5031574;28;20209;-75
2020/12/06 07:21:49;;;;;;;72.85;22.95;;;3.50;99.80;;;;;;5031461;28;20189;-73
2020/12/06 07:24:16;;;;;;;71.38;22.65;;;3.50;99.80;;;;;;5031192;28;20189;-74
2020/12/06 07:26:43;;;;;;;60.78;24.52;;;3.50;99.90;;;;;;5020334;28;20189;-74
2020/12/06 07:29:09;;;;;;;68.55;21.05;;;3.50;99.90;;;;;;5030901;28;20221;-74
2020/12/06 07:31:36;;;;;;;63.72;22.02;;;3.50;99.90;;;;;;5031166;28;20208;-73
2020/12/06 07:34:03;;;;;;;88.32;25.17;;;3.50;99.90;;;;;;5032121;28;20188;-75
2020/12/06 07:36:36;;;;;;;72.53;22.90;;;3.50;99.90;;;;;;5032041;28;20189;-75
2020/12/06 07:39:17;;;;;;;67.97;22.55;;;3.50;99.90;;;;;;5030935;28;21916;-72
2020/12/06 07:41:52;;;;;;;61.53;20.33;;;3.50;99.90;;;;;;5020905;28;20204;-75
2020/12/06 07:44:18;;;;;;;57.83;21.08;;;3.60;99.90;;;;;;5029325;28;20211;-75
2020/12/06 07:46:44;;;;;;;64.40;22.23;;;3.50;99.90;;;;;;5030982;28;20197;-73
2020/12/06 07:49:10;;;;;;;53.55;19.80;;;3.60;99.90;;;;;;5032785;28;20578;-74
2020/12/06 07:51:36;;;;;;;67.43;21.40;;;3.60;99.90;;;;;;5030792;28;20315;-74
2020/12/06 07:54:03;;;;;;;57.55;22.08;;;3.60;99.90;;;;;;5030477;28;20436;-75
2020/12/06 07:56:30;;;;;;;71.50;22.75;;;3.50;99.90;;;;;;5031800;28;20235;-74
2020/12/06 07:59:20;;;;;;;76.25;24.13;;;3.50;99.90;;;;;;5032142;28;20228;-73
2020/12/06 08:01:48;;;;;;;66.22;20.95;;;3.60;99.90;;;;;;5017315;28;20200;-73
2020/12/06 08:04:18;;;;;;;62.00;20.85;;;3.60;99.90;;;;;;5031266;28;20189;-73
2020/12/06 08:06:49;;;;;;;58.50;18.45;;;3.50;99.90;;;;;;5030698;28;20201;-74
2020/12/06 08:09:16;;;;;;;69.38;23.50;;;3.50;99.90;;;;;;5031001;28;20231;-73
2020/12/06 08:11:49;;;;;;;66.60;22.33;;;3.50;99.90;;;;;;5033863;28;20186;-75
2020/12/06 08:14:21;;;;;;;71.25;22.88;;;3.50;99.90;;;;;;5032079;28;20463;-72
2020/12/06 08:16:58;;;;;;;70.63;21.45;;;3.40;99.90;;;;;;5033493;28;20212;-73
2020/12/06 08:19:25;;;;;;;59.25;20.60;;;3.40;99.90;;;;;;5032195;28;20683;-75
2020/12/06 08:21:51;;;;;;;65.32;21.75;;;3.50;99.90;;;;;;5031751;28;20185;-74
2020/12/06 08:24:24;;;;;;;67.75;21.55;;;3.50;99.90;;;;;;5030962;28;20192;-74
2020/12/06 08:26:51;;;;;;;77.65;24.60;;;3.50;99.90;;;;;;5031593;28;20204;-75
2020/12/06 08:29:17;;;;;;;59.17;18.05;;;3.60;99.90;;;;;;5031369;28;20209;-75
2020/12/06 08:31:48;;;;;;;72.00;21.15;;;3.60;99.90;;;;;;5031548;28;20183;-73
2020/12/06 08:34:16;;;;;;;59.57;19.17;;;3.70;99.90;;;;;;5029349;28;20196;-76
2020/12/06 08:36:43;;;;;;;47.70;17.60;;;3.70;99.90;;;;;;5029844;28;21020;-74
2020/12/06 08:39:20;;;;;;;49.55;16.85;;;3.70;99.90;;;;;;5030976;28;20209;-75
2020/12/06 08:41:46;;;;;;;56.50;19.58;;;3.70;99.90;;;;;;5031514;28;20223;-75
2020/12/06 08:44:13;;;;;;;54.92;16.95;;;3.80;99.90;;;;;;5032618;28;20197;-76
2020/12/06 08:46:49;;;;;;;46.13;15.02;;;3.70;99.90;;;;;;5031130;28;20201;-76
2020/12/06 08:49:22;;;;;;;51.42;16.67;;;3.70;99.90;;;;;;5030675;28;20216;-77
2020/12/06 08:51:49;;;;;;;60.78;19.13;;;3.80;99.90;;;;;;5030774;28;20649;-74
2020/12/06 08:54:30;;;;;;;54.07;17.87;;;3.80;99.90;;;;;;5030272;28;20189;-75
2020/12/06 08:57:06;;;;;;;49.15;17.85;;;3.90;99.90;;;;;;5030991;28;20622;-74
2020/12/06 08:59:36;;;;;;;44.95;14.30;;;3.90;99.90;;;;;;5030601;28;20299;-75
2020/12/06 09:02:02;;;;;;;41.25;15.02;;;4.00;99.90;;;;;;5030567;28;20184;-75
2020/12/06 09:04:27;;;;;;;53.73;17.80;;;4.00;99.90;;;;;;5030170;28;20193;-74
2020/12/06 09:06:56;;;;;;;59.93;19.00;;;4.00;99.90;;;;;;5025219;28;20276;-76
2020/12/06 09:09:21;;;;;;;43.53;14.00;;;4.10;99.90;;;;;;5023879;28;20221;-75
2020/12/06 09:11:54;;;;;;;44.63;14.60;;;4.20;99.90;;;;;;5017636;28;20200;-75
2020/12/06 09:14:20;;;;;;;34.33;15.57;;;4.30;99.90;;;;;;5017303;28;20182;-76
2020/12/06 09:16:46;;;;;;;34.53;12.17;;;4.30;99.90;;;;;;5029505;28;20819;-76
2020/12/06 09:19:11;;;;;;;29.60;12.47;;;4.40;99.90;;;;;;5030378;28;20459;-75
2020/12/06 09:21:37;;;;;;;33.13;11.30;;;4.40;99.90;;;;;;5029652;28;20731;-73
2020/12/06 09:24:03;;;;;;;35.80;12.03;;;4.40;99.70;;;;;;5030202;28;20185;-75
2020/12/06 09:26:29;;;;;;;29.27;10.68;;;4.50;99.50;;;;;;5029982;28;20193;-74
2020/12/06 09:28:55;;;;;;;28.73;11.13;;;4.40;99.10;;;;;;5028519;28;20267;-73
2020/12/06 09:31:24;;;;;;;28.93;10.50;;;4.40;98.60;;;;;;5019093;28;20212;-73
2020/12/06 09:33:50;;;;;;;37.80;12.93;;;4.40;98.40;;;;;;5021030;28;20653;-75
2020/12/06 09:36:16;;;;;;;30.40;11.73;;;4.40;98.10;;;;;;5026183;28;21153;-73
2020/12/06 09:38:42;;;;;;;31.33;11.70;;;4.30;98.00;;;;;;5024411;28;20193;-73
2020/12/06 09:41:11;;;;;;;31.70;11.50;;;4.30;98.20;;;;;;5021550;28;20435;-74
2020/12/06 09:43:37;;;;;;;30.27;11.68;;;4.30;98.30;;;;;;5018961;28;20247;-73
2020/12/06 09:46:03;;;;;;;33.83;12.27;;;4.30;98.30;;;;;;5020330;28;20189;-75
2020/12/06 09:48:29;;;;;;;30.60;11.33;;;4.30;98.40;;;;;;5018997;28;20264;-75
2020/12/06 09:50:54;;;;;;;28.40;10.70;;;4.30;98.40;;;;;;5019538;28;20201;-74
2020/12/06 09:53:20;;;;;;;26.30;10.30;;;4.30;98.30;;;;;;5016587;28;20174;-74
2020/12/06 09:55:46;;;;;;;25.63;10.53;;;4.40;98.30;;;;;;5017031;28;20185;-72
2020/12/06 09:58:15;;;;;;;29.13;11.60;;;4.40;98.20;;;;;;5017086;28;20251;-73
2020/12/06 10:00:42;;;;;;;28.60;10.53;;;4.50;98.00;;;;;;5028565;28;20220;-72
2020/12/06 10:03:07;;;;;;;28.17;10.10;;;4.60;98.10;;;;;;5016296;28;20444;-72
2020/12/06 10:05:33;;;;;;;24.90;8.83;;;4.70;98.00;;;;;;5029849;28;20424;-74
2020/12/06 10:07:59;;;;;;;26.97;10.50;;;4.80;97.70;;;;;;5029615;28;20201;-73
2020/12/06 10:10:24;;;;;;;23.53;9.00;;;4.80;97.50;;;;;;5021576;28;20630;-74
2020/12/06 10:12:50;;;;;;;22.50;10.07;;;4.80;97.50;;;;;;5050633;28;20190;-72
2020/12/06 10:15:16;;;;;;;20.23;8.87;;;4.80;97.20;;;;;;5025107;28;20278;-74
2020/12/06 10:17:41;;;;;;;18.27;8.70;;;4.80;96.90;;;;;;5028865;28;20177;-75
2020/12/06 10:20:07;;;;;;;26.20;9.50;;;4.80;96.90;;;;;;5021320;28;20256;-74
2020/12/06 10:22:34;;;;;;;20.50;8.20;;;4.80;96.90;;;;;;5028092;28;20178;-74
2020/12/06 10:25:00;;;;;;;24.90;10.30;;;4.70;96.80;;;;;;5021264;28;20424;-74
2020/12/06 10:27:26;;;;;;;26.60;10.27;;;4.70;97.00;;;;;;5022364;28;20934;-73
2020/12/06 10:29:52;;;;;;;23.63;9.93;;;4.70;97.30;;;;;;5028441;28;20209;-73
2020/12/06 10:32:17;;;;;;;23.33;9.83;;;4.70;97.40;;;;;;5026397;28;20485;-72
2020/12/06 10:34:43;;;;;;;25.30;10.60;;;4.60;97.40;;;;;;5028663;28;20424;-73
2020/12/06 10:37:09;;;;;;;30.73;11.77;;;4.60;97.70;;;;;;5029602;28;20182;-72
2020/12/06 10:39:35;;;;;;;29.50;11.50;;;4.70;97.90;;;;;;5026684;28;20236;-72
2020/12/06 10:42:01;;;;;;;19.97;9.90;;;4.80;98.00;;;;;;5014948;28;20181;-72
2020/12/06 10:44:26;;;;;;;24.87;10.83;;;4.80;97.70;;;;;;5026192;28;20256;-76
2020/12/06 10:46:53;;;;;;;23.93;10.80;;;4.90;97.50;;;;;;5027012;28;20200;-73
2020/12/06 10:49:20;;;;;;;20.47;9.80;;;4.90;97.60;;;;;;5020634;28;20300;-74
2020/12/06 10:51:50;;;;;;;20.77;9.13;;;5.00;97.70;;;;;;5021068;28;20424;-74
2020/12/06 10:54:16;;;;;;;25.50;10.70;;;5.10;97.60;;;;;;5026046;28;20487;-73
2020/12/06 10:56:42;;;;;;;20.80;9.38;;;5.10;97.30;;;;;;5028062;28;20503;-74
2020/12/06 10:59:09;;;;;;;23.90;9.83;;;5.00;97.10;;;;;;5025590;28;20237;-74
2020/12/06 11:01:35;;;;;;;20.73;9.23;;;5.10;97.20;;;;;;5029664;28;20456;-74
2020/12/06 11:04:03;;;;;;;18.73;8.90;;;5.10;97.20;;;;;;5026046;28;20434;-73
2020/12/06 11:06:29;;;;;;;21.50;9.93;;;5.10;96.80;;;;;;5060646;28;20469;-73
2020/12/06 11:08:54;;;;;;;20.07;8.27;;;5.20;96.80;;;;;;5027723;28;20532;-73
2020/12/06 11:11:22;;;;;;;27.33;10.07;;;5.20;96.80;;;;;;5034177;28;20755;-73
2020/12/06 11:13:48;;;;;;;21.50;9.70;;;5.20;96.70;;;;;;5035667;28;20190;-73
2020/12/06 11:16:18;;;;;;;28.50;11.10;;;5.20;96.90;;;;;;5035748;28;20618;-73
2020/12/06 11:18:46;;;;;;;24.20;10.00;;;5.20;96.90;;;;;;5037232;28;20933;-74
2020/12/06 11:21:13;;;;;;;25.30;10.63;;;5.10;97.00;;;;;;5032245;28;20420;-73
2020/12/06 11:23:39;;;;;;;22.80;9.60;;;5.20;97.30;;;;;;5032391;28;20420;-74
2020/12/06 11:26:08;;;;;;;25.30;9.37;;;5.30;97.40;;;;;;5031602;28;20211;-73
2020/12/06 11:28:34;;;;;;;20.97;9.53;;;5.30;97.30;;;;;;5032713;28;20209;-74
2020/12/06 11:30:59;;;;;;;24.20;9.80;;;5.20;97.30;;;;;;5030940;28;20466;-74
2020/12/06 11:33:25;;;;;;;21.60;9.70;;;5.20;97.10;;;;;;5023311;28;20555;-73
2020/12/06 11:35:51;;;;;;;26.90;9.73;;;5.20;97.30;;;;;;5025473;28;20423;-74
2020/12/06 11:38:17;;;;;;;24.73;9.83;;;5.20;97.50;;;;;;5027653;28;20676;-74
2020/12/06 11:40:43;;;;;;;21.37;10.43;;;5.20;97.70;;;;;;5028396;28;20710;-74
2020/12/06 11:43:08;;;;;;;19.13;9.87;;;5.30;97.80;;;;;;5029714;28;20220;-75
2020/12/06 11:45:36;;;;;;;24.27;11.50;;;5.30;97.60;;;;;;5028307;28;20458;-74
2020/12/06 11:48:02;;;;;;;24.00;10.20;;;5.40;97.50;;;;;;5024443;28;20209;-73
2020/12/06 11:50:28;;;;;;;19.00;9.27;;;5.40;97.50;;;;;;5029199;28;20439;-74
2020/12/06 11:52:54;;;;;;;22.90;9.67;;;5.40;97.50;;;;;;5031826;28;20428;-75
2020/12/06 11:55:20;;;;;;;24.33;9.83;;;5.40;97.70;;;;;;5030037;28;20425;-75
2020/12/06 11:57:45;;;;;;;21.00;9.60;;;5.50;97.70;;;;;;5026694;28;20896;-75
2020/12/06 12:00:11;;;;;;;21.07;9.70;;;5.50;97.60;;;;;;5024106;28;20602;-75
2020/12/06 12:02:37;;;;;;;20.47;9.90;;;5.60;97.60;;;;;;5021212;28;20213;-73
2020/12/06 12:05:03;;;;;;;16.63;9.10;;;5.70;97.70;;;;;;5027547;28;20199;-74
2020/12/06 12:07:28;;;;;;;17.17;8.60;;;5.70;97.60;;;;;;5031723;28;20204;-74
2020/12/06 12:09:54;;;;;;;16.33;8.57;;;5.70;97.00;;;;;;5017202;28;20479;-73
2020/12/06 12:12:20;;;;;;;19.17;9.67;;;5.70;96.70;;;;;;5019986;28;20185;-74
2020/12/06 12:14:45;;;;;;;19.80;8.90;;;5.60;96.70;;;;;;5027483;28;20899;-74
2020/12/06 12:17:11;;;;;;;18.37;7.93;;;5.60;96.80;;;;;;5032123;28;20197;-75
2020/12/06 12:19:37;;;;;;;16.10;9.00;;;5.60;96.80;;;;;;5030398;28;20205;-75
2020/12/06 12:22:03;;;;;;;21.77;11.10;;;5.60;96.80;;;;;;5030555;28;20255;-73
2020/12/06 12:24:28;;;;;;;17.37;8.90;;;5.60;96.80;;;;;;5030784;28;20189;-75
2020/12/06 12:26:59;;;;;;;26.30;10.20;;;5.60;97.00;;;;;;5029986;28;20794;-74
2020/12/06 12:29:25;;;;;;;18.30;8.67;;;5.60;97.10;;;;;;5030838;28;20274;-74
2020/12/06 12:31:51;;;;;;;19.20;8.40;;;5.60;97.00;;;;;;5020145;28;20944;-72
2020/12/06 12:34:17;;;;;;;17.20;8.50;;;5.70;97.10;;;;;;5024045;28;20425;-74
2020/12/06 12:36:43;;;;;;;19.27;9.00;;;5.80;96.70;;;;;;5026146;28;20227;-74
2020/12/06 12:39:09;;;;;;;17.93;8.77;;;5.70;96.40;;;;;;5028374;28;20455;-73